Burlington, North Dakota
Current Conditions -  °F | °C
As of 10:54 PM on Saturday 25 Oct 2014 (Local Time) from KMOT Reporting Station
Clear Clear  
Wind Chill: 32°   Ceiling: Unl
Heat Index: 38°   Visibility: 10mi
Dew Point: 29°   Wind: 8mph
Humidity: 70%   Direction: 110°ESE
Pressure: 29.9"   Gusts: NA
Location:  48.28°N, 101.43°W
Report Text: KMOT 260354Z AUTO 11007KT 10SM CLR 03/M02 A2990 RMK AO2 SLP137 T00331017
Loading
Personal Weather Stations






























Interactive Weather Map
Tropical Storm Tracking
New forecast layout! Learn more

10-Day Weather Forecast

Advertisements
Track Severe Weather on mobile